Time;durP1;ratioP1;P1;durP2;ratioP2;P2;SDS_P1;SDS_P2;PMS_P1;PMS_P2;Temp;Humidity;BMP_temperature;BMP_pressure;BME280_temperature;BME280_humidity;BME280_pressure;Samples;Min_cycle;Max_cycle;Signal;HPM_P1;HPM_P2
2022/05/16 00:01:13;;;;;;;20.77;5.75;;;16.50;88.70;;;;;;5038605;28;20025;-63
2022/05/16 00:03:38;;;;;;;26.75;6.90;;;16.50;89.00;;;;;;5038116;28;20018;-63
2022/05/16 00:06:04;;;;;;;20.08;6.55;;;16.50;89.00;;;;;;5038044;28;20029;-63
2022/05/16 00:08:31;;;;;;;23.45;6.22;;;16.40;90.80;;;;;;5038075;28;20021;-63
2022/05/16 00:10:57;;;;;;;22.25;6.70;;;16.40;90.90;;;;;;5038210;28;20052;-63
2022/05/16 00:13:25;;;;;;;19.58;5.65;;;16.40;90.60;;;;;;5038056;28;20029;-63
2022/05/16 00:15:52;;;;;;;21.65;5.90;;;16.50;89.50;;;;;;5038142;28;20037;-63
2022/05/16 00:18:18;;;;;;;20.98;5.90;;;16.50;88.70;;;;;;5037858;28;20101;-63
2022/05/16 00:20:44;;;;;;;24.38;7.07;;;16.50;90.00;;;;;;5037874;28;20045;-63
2022/05/16 00:23:09;;;;;;;19.23;5.80;;;16.50;90.20;;;;;;5037827;28;20024;-63
2022/05/16 00:25:35;;;;;;;18.10;5.78;;;16.50;89.50;;;;;;5038025;28;20022;-63
2022/05/16 00:28:03;;;;;;;21.40;6.32;;;16.50;90.30;;;;;;5037984;28;20699;-63
2022/05/16 00:30:29;;;;;;;19.17;6.25;;;16.50;90.40;;;;;;5037982;28;20040;-63
2022/05/16 00:32:55;;;;;;;14.88;6.15;;;16.60;89.20;;;;;;5037699;28;20485;-63
2022/05/16 00:35:22;;;;;;;23.27;6.30;;;16.50;90.30;;;;;;5037696;28;20084;-63
2022/05/16 00:37:48;;;;;;;19.00;6.00;;;16.50;89.60;;;;;;5037836;28;20371;-63
2022/05/16 00:40:15;;;;;;;15.70;5.20;;;16.50;90.30;;;;;;5037733;28;20053;-63
2022/05/16 00:42:41;;;;;;;19.85;6.57;;;16.50;90.60;;;;;;5037814;28;20385;-63
2022/05/16 00:45:09;;;;;;;20.65;6.53;;;16.50;90.90;;;;;;5037839;28;20024;-63
2022/05/16 00:47:35;;;;;;;17.50;5.93;;;16.50;90.30;;;;;;5037557;28;20068;-63
2022/05/16 00:50:03;;;;;;;17.50;5.72;;;16.50;90.60;;;;;;5037580;28;20033;-63
2022/05/16 00:52:36;;;;;;;22.45;6.72;;;16.50;90.80;;;;;;5037461;28;20026;-63
2022/05/16 00:55:10;;;;;;;21.55;6.05;;;16.50;91.00;;;;;;5037284;28;20148;-63
2022/05/16 00:57:41;;;;;;;16.88;6.13;;;16.50;91.10;;;;;;5037957;28;20109;-63
2022/05/16 01:00:22;;;;;;;15.38;5.43;;;16.50;90.30;;;;;;5037378;28;20104;-63
2022/05/16 01:05:38;;;;;;;19.33;6.13;;;16.50;89.80;;;;;;5037757;28;20474;-63
2022/05/16 01:08:09;;;;;;;16.95;6.05;;;16.60;89.30;;;;;;5037580;28;20075;-63
2022/05/16 01:10:36;;;;;;;17.60;5.68;;;16.50;90.40;;;;;;5037381;28;20022;-63
2022/05/16 01:13:03;;;;;;;20.80;6.25;;;16.50;90.30;;;;;;5037418;28;20025;-63
2022/05/16 01:15:36;;;;;;;15.65;5.85;;;16.50;89.80;;;;;;5038229;28;20105;-63
2022/05/16 01:18:04;;;;;;;22.92;5.63;;;16.40;90.50;;;;;;5041333;28;20040;-63
2022/05/16 01:20:56;;;;;;;19.13;5.80;;;16.40;89.80;;;;;;5041279;28;20033;-63
2022/05/16 01:23:27;;;;;;;19.40;5.10;;;16.40;90.00;;;;;;5041160;28;20017;-62
2022/05/16 01:25:53;;;;;;;19.70;6.03;;;16.30;90.50;;;;;;5039631;28;20029;-63
2022/05/16 01:28:22;;;;;;;20.05;5.60;;;16.30;90.60;;;;;;5041279;28;20022;-62
2022/05/16 01:30:49;;;;;;;18.13;5.05;;;16.30;90.40;;;;;;5040991;28;20026;-63
2022/05/16 01:33:20;;;;;;;16.83;5.22;;;16.30;90.10;;;;;;5041155;28;20026;-62
2022/05/16 01:35:47;;;;;;;17.13;4.85;;;16.30;90.10;;;;;;5041227;28;20120;-63
2022/05/16 01:38:19;;;;;;;14.38;4.97;;;16.20;89.50;;;;;;5040774;28;20040;-63
2022/05/16 01:41:16;;;;;;;20.98;5.60;;;16.20;90.10;;;;;;5040609;28;20029;-62
2022/05/16 01:43:51;;;;;;;16.77;5.55;;;16.20;90.50;;;;;;5040826;28;20432;-63
2022/05/16 01:46:21;;;;;;;19.77;6.43;;;16.20;90.20;;;;;;5040483;28;20473;-62
2022/05/16 01:48:47;;;;;;;20.65;5.85;;;16.30;90.40;;;;;;5040702;28;20033;-63
2022/05/16 01:51:14;;;;;;;14.60;4.78;;;16.40;90.80;;;;;;5040682;28;20041;-63
2022/05/16 01:53:42;;;;;;;21.23;6.00;;;16.40;91.50;;;;;;5040806;28;20089;-63
2022/05/16 01:56:08;;;;;;;15.88;5.22;;;16.40;91.20;;;;;;5040332;28;20053;-63
2022/05/16 01:58:34;;;;;;;20.67;5.68;;;16.40;91.00;;;;;;5040440;28;20108;-62
2022/05/16 02:01:00;;;;;;;22.70;6.00;;;16.50;91.00;;;;;;5040475;28;20060;-63
2022/05/16 02:03:26;;;;;;;23.15;7.35;;;16.50;91.10;;;;;;5040389;28;20083;-63
2022/05/16 02:05:52;;;;;;;21.30;5.72;;;16.50;90.50;;;;;;5040509;28;20025;-62
2022/05/16 02:08:17;;;;;;;21.23;6.60;;;16.50;91.00;;;;;;5040358;28;20017;-62
2022/05/16 02:10:45;;;;;;;20.67;5.97;;;16.50;90.60;;;;;;5040717;28;20539;-63
2022/05/16 02:13:12;;;;;;;23.75;5.88;;;16.50;91.10;;;;;;5040208;28;20013;-63
2022/05/16 02:15:40;;;;;;;22.80;5.80;;;16.50;90.90;;;;;;5040465;28;20026;-63
2022/05/16 02:18:07;;;;;;;19.17;5.30;;;16.40;91.50;;;;;;5040433;28;20030;-63
2022/05/16 02:20:32;;;;;;;20.52;5.82;;;16.50;90.70;;;;;;5040219;28;20038;-63
2022/05/16 02:25:45;;;;;;;19.52;5.90;;;16.50;90.60;;;;;;5040236;28;20037;-63
2022/05/16 02:28:14;;;;;;;17.73;4.97;;;16.50;90.60;;;;;;5039855;28;20040;-63
2022/05/16 02:30:44;;;;;;;16.90;5.97;;;16.50;91.40;;;;;;5039745;28;20025;-63
2022/05/16 02:33:11;;;;;;;17.42;5.28;;;16.50;91.10;;;;;;5039653;28;20034;-63
2022/05/16 02:35:37;;;;;;;19.67;5.47;;;16.50;90.40;;;;;;5039840;28;20029;-63
2022/05/16 02:38:05;;;;;;;22.60;5.75;;;16.50;90.80;;;;;;5040002;28;20022;-63
2022/05/16 02:40:32;;;;;;;17.55;5.93;;;16.50;91.10;;;;;;5039680;28;20036;-63
2022/05/16 02:42:59;;;;;;;20.90;5.60;;;16.50;90.90;;;;;;5039993;28;20523;-63
2022/05/16 02:45:25;;;;;;;21.45;5.40;;;16.50;90.10;;;;;;5039840;28;20030;-63
2022/05/16 02:47:51;;;;;;;18.48;5.70;;;16.40;91.00;;;;;;5039678;28;20076;-62
2022/05/16 02:50:18;;;;;;;19.45;5.45;;;16.40;91.30;;;;;;5039723;28;20029;-63
2022/05/16 02:52:44;;;;;;;19.05;4.97;;;16.40;91.10;;;;;;5039484;28;20061;-63
2022/05/16 02:55:10;;;;;;;17.25;5.50;;;16.40;90.30;;;;;;5039200;28;20061;-63
2022/05/16 02:57:36;;;;;;;19.70;5.72;;;16.40;90.90;;;;;;5039594;28;20516;-63
2022/05/16 03:00:08;;;;;;;15.43;4.60;;;16.40;91.00;;;;;;5039605;28;20489;-63
2022/05/16 03:02:35;;;;;;;21.83;5.25;;;16.40;91.80;;;;;;5039781;28;20369;-63
2022/05/16 03:05:01;;;;;;;20.48;5.05;;;16.40;91.70;;;;;;5039704;28;20013;-62
2022/05/16 03:07:27;;;;;;;20.70;5.40;;;16.40;91.00;;;;;;5039194;28;20025;-62
2022/05/16 03:09:53;;;;;;;18.75;5.00;;;16.50;91.70;;;;;;5039334;28;20448;-63
2022/05/16 03:12:19;;;;;;;22.90;5.32;;;16.40;91.40;;;;;;5039092;28;20017;-63
2022/05/16 03:14:44;;;;;;;14.00;4.80;;;16.40;91.80;;;;;;5038858;28;20036;-63
2022/05/16 03:17:10;;;;;;;21.80;6.15;;;16.30;92.00;;;;;;5039024;28;20024;-63
2022/05/16 03:19:36;;;;;;;17.20;4.63;;;16.30;92.10;;;;;;5039310;28;20026;-63
2022/05/16 03:22:04;;;;;;;17.02;5.38;;;16.30;90.90;;;;;;5039134;28;20446;-62
2022/05/16 03:24:30;;;;;;;18.88;5.40;;;16.30;91.90;;;;;;5039036;28;20028;-63
2022/05/16 03:26:56;;;;;;;20.42;6.00;;;16.30;91.20;;;;;;5038830;28;20033;-63
2022/05/16 03:29:22;;;;;;;16.75;5.10;;;16.20;91.90;;;;;;5039008;28;20033;-63
2022/05/16 03:31:48;;;;;;;18.05;5.20;;;16.20;92.10;;;;;;5038734;28;20079;-62
2022/05/16 03:34:13;;;;;;;17.77;5.65;;;16.10;92.30;;;;;;5038841;28;20436;-63
2022/05/16 03:36:39;;;;;;;15.23;5.57;;;16.10;91.80;;;;;;5038999;28;20048;-63
2022/05/16 03:41:51;;;;;;;21.90;6.20;;;16.00;91.80;;;;;;5038948;28;20079;-62
2022/05/16 03:44:18;;;;;;;17.15;5.05;;;16.00;92.20;;;;;;5038675;28;20053;-62
2022/05/16 03:46:43;;;;;;;16.02;4.78;;;16.00;91.90;;;;;;5038467;28;20021;-62
2022/05/16 03:49:10;;;;;;;16.60;5.32;;;15.90;91.80;;;;;;5038386;28;20078;-63
2022/05/16 03:51:36;;;;;;;19.98;5.20;;;15.90;92.80;;;;;;5038324;28;20397;-63
2022/05/16 03:54:03;;;;;;;19.90;5.30;;;15.90;92.10;;;;;;5038439;28;20044;-63
2022/05/16 03:56:28;;;;;;;17.80;4.82;;;15.90;92.60;;;;;;5037932;28;20064;-62
2022/05/16 03:58:57;;;;;;;14.35;4.95;;;15.90;92.20;;;;;;5037950;28;20026;-63
2022/05/16 04:01:23;;;;;;;14.68;5.00;;;15.90;92.10;;;;;;5036910;28;20025;-63
2022/05/16 04:03:50;;;;;;;23.05;6.05;;;15.90;92.60;;;;;;5038031;28;20029;-63
2022/05/16 04:06:16;;;;;;;18.08;4.95;;;15.90;92.60;;;;;;5038302;28;20021;-63
2022/05/16 04:08:43;;;;;;;18.50;5.00;;;15.90;92.70;;;;;;5038148;28;20029;-63
2022/05/16 04:11:10;;;;;;;15.32;4.40;;;15.90;92.20;;;;;;5038285;28;20025;-62
2022/05/16 04:13:37;;;;;;;17.63;5.00;;;15.90;92.00;;;;;;5038051;28;20028;-62
2022/05/16 04:16:04;;;;;;;18.20;5.97;;;15.90;92.40;;;;;;5036732;28;20025;-63
2022/05/16 04:18:31;;;;;;;15.65;4.15;;;15.90;92.70;;;;;;5038038;28;20021;-62
2022/05/16 04:20:57;;;;;;;18.13;5.22;;;15.90;92.30;;;;;;5037835;28;20025;-62
2022/05/16 04:23:23;;;;;;;15.93;5.10;;;15.90;92.90;;;;;;5038139;28;20032;-62
2022/05/16 04:25:48;;;;;;;16.02;4.28;;;15.90;92.40;;;;;;5037871;28;20393;-62
2022/05/16 04:28:14;;;;;;;14.20;4.90;;;15.90;92.20;;;;;;5037600;28;20025;-62
2022/05/16 04:30:40;;;;;;;19.95;4.95;;;15.90;93.30;;;;;;5037413;28;20030;-62
2022/05/16 04:33:07;;;;;;;16.02;4.78;;;15.90;92.90;;;;;;5037177;28;20025;-62
2022/05/16 04:35:33;;;;;;;19.42;6.57;;;15.90;93.20;;;;;;5037248;28;20026;-62
2022/05/16 04:37:59;;;;;;;15.18;5.32;;;15.90;93.20;;;;;;5037438;28;20159;-63
2022/05/16 04:40:25;;;;;;;16.70;5.35;;;15.90;93.10;;;;;;5037148;28;20099;-63
2022/05/16 04:42:52;;;;;;;19.52;4.80;;;16.00;93.10;;;;;;5037236;28;20024;-62
2022/05/16 04:45:25;;;;;;;17.30;5.63;;;16.00;92.80;;;;;;5037652;28;20022;-62
2022/05/16 04:48:01;;;;;;;15.82;5.45;;;16.00;93.10;;;;;;5036666;28;20409;-63
2022/05/16 04:50:32;;;;;;;17.88;5.78;;;16.00;93.50;;;;;;5038329;28;20500;-62
2022/05/16 04:52:59;;;;;;;19.55;5.30;;;16.00;93.20;;;;;;5041652;28;20477;-63
2022/05/16 04:55:25;;;;;;;18.17;5.03;;;16.10;93.20;;;;;;5041173;28;20053;-62
2022/05/16 04:57:51;;;;;;;18.13;5.03;;;16.10;93.10;;;;;;5041131;28;20021;-63
2022/05/16 05:00:19;;;;;;;21.10;6.28;;;16.10;93.30;;;;;;5040633;28;20558;-63
2022/05/16 05:02:45;;;;;;;19.48;5.75;;;16.10;93.40;;;;;;5040654;28;20078;-62
2022/05/16 05:05:12;;;;;;;18.08;5.43;;;16.00;93.50;;;;;;5041221;28;20028;-62
2022/05/16 05:07:38;;;;;;;17.50;5.00;;;16.10;93.50;;;;;;5041176;28;20061;-62
2022/05/16 05:16:04;;;;;;;13.68;4.90;;;16.10;93.40;;;;;;5058539;28;20034;-62
2022/05/16 05:18:31;;;;;;;17.77;5.25;;;16.10;93.50;;;;;;5042817;28;20087;-62
2022/05/16 05:20:57;;;;;;;18.08;5.50;;;16.10;93.30;;;;;;5040527;28;20080;-63
2022/05/16 05:23:23;;;;;;;16.70;4.90;;;16.20;93.10;;;;;;5040636;28;20022;-63
2022/05/16 05:25:48;;;;;;;22.00;5.72;;;16.20;93.40;;;;;;5041073;28;20101;-62
2022/05/16 05:28:14;;;;;;;16.20;5.47;;;16.20;93.40;;;;;;5040518;28;20029;-62
2022/05/16 05:30:40;;;;;;;15.50;4.95;;;16.20;93.10;;;;;;5040499;28;20041;-63
2022/05/16 05:33:06;;;;;;;16.88;4.80;;;16.20;92.90;;;;;;5040871;28;20026;-63
2022/05/16 05:35:31;;;;;;;16.98;5.88;;;16.20;92.80;;;;;;5040350;28;20030;-62
2022/05/16 05:37:57;;;;;;;14.43;5.30;;;16.30;92.80;;;;;;5040337;28;20029;-63
2022/05/16 05:40:24;;;;;;;20.02;5.93;;;16.30;92.80;;;;;;5040460;28;20033;-62
2022/05/16 05:42:50;;;;;;;22.30;5.47;;;16.30;92.80;;;;;;5040295;28;20016;-62
2022/05/16 05:45:16;;;;;;;18.98;5.43;;;16.30;93.10;;;;;;5039981;28;20555;-63
2022/05/16 05:47:42;;;;;;;15.70;4.88;;;16.30;93.20;;;;;;5040214;28;20014;-63
2022/05/16 05:50:09;;;;;;;21.35;5.47;;;16.30;93.20;;;;;;5040178;28;20027;-63
2022/05/16 05:52:35;;;;;;;17.90;5.53;;;16.40;93.40;;;;;;5040327;28;20053;-63
2022/05/16 05:55:01;;;;;;;19.95;5.22;;;16.40;93.20;;;;;;5039897;28;20051;-63
2022/05/16 05:57:27;;;;;;;17.75;5.78;;;16.40;93.30;;;;;;5040200;28;20030;-63
2022/05/16 05:59:56;;;;;;;22.33;5.88;;;16.40;93.10;;;;;;5040149;28;20033;-63
2022/05/16 06:02:24;;;;;;;19.10;5.70;;;16.50;93.20;;;;;;5039409;28;20610;-63
2022/05/16 06:04:51;;;;;;;15.80;5.13;;;16.60;93.10;;;;;;5039703;28;20379;-62
2022/05/16 06:07:17;;;;;;;20.80;5.72;;;16.70;92.80;;;;;;5039791;28;20520;-62
2022/05/16 06:09:43;;;;;;;17.05;5.85;;;16.70;92.60;;;;;;5040021;28;20033;-62
2022/05/16 06:12:10;;;;;;;18.48;5.70;;;16.70;92.50;;;;;;5039757;28;20608;-63
2022/05/16 06:14:36;;;;;;;16.25;5.57;;;16.70;92.50;;;;;;5040120;28;20028;-63
2022/05/16 06:17:02;;;;;;;18.40;5.65;;;16.70;92.50;;;;;;5039612;28;20061;-62
2022/05/16 06:19:28;;;;;;;20.48;5.70;;;16.70;92.40;;;;;;5039771;28;20026;-62
2022/05/16 06:21:54;;;;;;;19.38;5.47;;;16.70;92.40;;;;;;5040153;28;20033;-63
2022/05/16 06:27:05;;;;;;;21.67;6.85;;;16.60;92.80;;;;;;5039620;28;20023;-63
2022/05/16 06:29:31;;;;;;;18.45;6.18;;;16.60;93.50;;;;;;5040006;28;20037;-63
2022/05/16 06:31:57;;;;;;;22.50;6.38;;;16.50;94.30;;;;;;5039578;28;20029;-63
2022/05/16 06:34:23;;;;;;;18.02;6.50;;;16.40;94.50;;;;;;5039562;28;20033;-63
2022/05/16 06:36:48;;;;;;;17.35;5.50;;;16.30;94.40;;;;;;5039286;28;20026;-63
2022/05/16 06:39:15;;;;;;;23.40;6.50;;;16.30;94.50;;;;;;5039306;28;20037;-63
2022/05/16 06:41:41;;;;;;;16.33;5.53;;;16.20;94.70;;;;;;5039250;28;20749;-63
2022/05/16 06:44:09;;;;;;;18.48;6.55;;;16.20;94.80;;;;;;5039321;28;20049;-63
2022/05/16 06:46:35;;;;;;;17.48;6.03;;;16.10;94.80;;;;;;5039039;28;20060;-63
2022/05/16 06:49:01;;;;;;;15.82;5.72;;;16.10;94.90;;;;;;5039158;28;20033;-62
2022/05/16 06:51:27;;;;;;;18.42;6.38;;;16.10;94.80;;;;;;5039037;28;20083;-63
2022/05/16 06:53:52;;;;;;;20.33;5.45;;;16.10;95.00;;;;;;5039185;28;20112;-62
2022/05/16 06:56:18;;;;;;;21.80;6.18;;;16.10;94.60;;;;;;5038587;28;20064;-63
2022/05/16 06:58:44;;;;;;;16.08;5.97;;;16.10;95.10;;;;;;5039000;28;20034;-63
2022/05/16 07:01:10;;;;;;;20.52;6.07;;;16.20;95.10;;;;;;5038755;28;20547;-63
2022/05/16 07:03:38;;;;;;;23.88;5.97;;;16.10;94.50;;;;;;5039230;28;20024;-63
2022/05/16 07:06:04;;;;;;;24.17;6.13;;;16.10;94.70;;;;;;5039127;28;20025;-62
2022/05/16 07:08:30;;;;;;;18.80;6.30;;;16.10;94.90;;;;;;5038759;28;20052;-62
2022/05/16 07:10:56;;;;;;;23.02;6.55;;;16.10;95.10;;;;;;5038757;28;20100;-62
2022/05/16 07:13:24;;;;;;;17.92;5.80;;;16.10;95.40;;;;;;5037683;28;20025;-62
2022/05/16 07:15:50;;;;;;;17.08;4.80;;;16.00;95.30;;;;;;5039143;28;20024;-62
2022/05/16 07:18:17;;;;;;;15.95;5.72;;;15.90;95.00;;;;;;5038678;28;20022;-62
2022/05/16 07:20:42;;;;;;;11.90;4.70;;;15.90;94.90;;;;;;5038678;28;20025;-62
2022/05/16 07:23:09;;;;;;;18.88;4.85;;;15.80;94.50;;;;;;5038335;28;20032;-62
2022/05/16 07:28:20;;;;;;;15.00;6.10;;;15.80;95.50;;;;;;5038740;28;20040;-61
2022/05/16 07:30:47;;;;;;;18.40;5.63;;;15.80;95.60;;;;;;5038527;28;20028;-61
2022/05/16 07:33:12;;;;;;;15.85;5.30;;;15.90;96.00;;;;;;5038273;28;20030;-61
2022/05/16 07:35:38;;;;;;;23.17;6.28;;;15.90;96.20;;;;;;5038715;28;20029;-61
2022/05/16 07:38:05;;;;;;;19.20;6.10;;;16.00;96.00;;;;;;5038309;28;20087;-62
2022/05/16 07:40:36;;;;;;;17.10;5.63;;;16.10;96.00;;;;;;5038076;28;20060;-61
2022/05/16 07:43:02;;;;;;;19.80;6.32;;;16.20;95.80;;;;;;5038530;28;20025;-61
2022/05/16 07:45:29;;;;;;;19.20;5.97;;;16.20;95.50;;;;;;5038164;28;20025;-61
2022/05/16 07:47:55;;;;;;;19.88;5.95;;;16.30;95.90;;;;;;5038022;28;20017;-61
2022/05/16 07:50:22;;;;;;;22.45;5.63;;;16.40;95.50;;;;;;5038262;28;20026;-62
2022/05/16 07:52:48;;;;;;;20.67;6.22;;;16.40;95.20;;;;;;5038012;28;20471;-61
2022/05/16 07:55:20;;;;;;;14.60;5.07;;;16.60;95.10;;;;;;5037738;28;20408;-61
2022/05/16 07:57:45;;;;;;;20.73;5.82;;;16.60;94.60;;;;;;5037991;28;20108;-61
2022/05/16 08:00:12;;;;;;;19.92;5.43;;;16.60;94.40;;;;;;5038066;28;20128;-61
2022/05/16 08:02:40;;;;;;;16.50;5.63;;;16.50;94.20;;;;;;5037990;28;20046;-61
2022/05/16 08:05:10;;;;;;;16.50;5.38;;;16.50;94.10;;;;;;5037240;28;20159;-62
2022/05/16 08:10:29;;;;;;;14.38;5.43;;;16.50;94.20;;;;;;5037650;28;20022;-61
2022/05/16 08:10:31;;;;;;;17.33;4.70;;;16.40;93.90;;;;;;5037393;28;20026;-61
2022/05/16 08:13:03;;;;;;;18.90;4.78;;;16.40;93.70;;;;;;5037372;28;20060;-62
2022/05/16 08:15:30;;;;;;;14.07;4.50;;;16.30;94.10;;;;;;5037803;28;20029;-61
2022/05/16 08:17:57;;;;;;;16.08;4.88;;;16.30;93.80;;;;;;5037543;28;20026;-61
2022/05/16 08:20:24;;;;;;;20.45;5.00;;;16.30;94.30;;;;;;5037523;28;20040;-61
2022/05/16 08:22:51;;;;;;;18.58;4.97;;;16.30;94.40;;;;;;5037493;28;20020;-61
2022/05/16 08:25:17;;;;;;;17.45;5.05;;;16.30;93.90;;;;;;5037528;28;20025;-61
2022/05/16 08:27:43;;;;;;;17.35;4.82;;;16.40;94.30;;;;;;5037495;28;20032;-61
2022/05/16 08:30:12;;;;;;;15.43;5.00;;;16.40;94.40;;;;;;5037309;28;20452;-61
2022/05/16 08:32:38;;;;;;;18.90;6.00;;;16.40;94.60;;;;;;5037438;28;20029;-61
2022/05/16 08:35:07;;;;;;;16.38;5.47;;;16.50;94.60;;;;;;5037493;28;20045;-61
2022/05/16 08:40:20;;;;;;;18.50;6.10;;;16.70;94.80;;;;;;5037283;28;20511;-61
2022/05/16 08:42:57;;;;;;;22.00;5.97;;;16.90;94.50;;;;;;5037412;28;20057;-61
2022/05/16 08:45:38;;;;;;;18.50;5.90;;;17.10;94.20;;;;;;5037470;28;20116;-61
2022/05/16 08:48:30;;;;;;;19.42;5.60;;;17.10;93.10;;;;;;5037342;28;20049;-61
2022/05/16 08:51:06;;;;;;;20.23;5.53;;;17.10;92.60;;;;;;5037047;28;20384;-62
2022/05/16 08:53:55;;;;;;;17.05;5.70;;;17.00;92.60;;;;;;5037105;28;20075;-62
2022/05/16 08:56:28;;;;;;;14.63;5.30;;;16.90;92.70;;;;;;5036985;28;20054;-62
2022/05/16 08:59:24;;;;;;;20.48;6.25;;;16.80;93.00;;;;;;5035682;28;20040;-62
2022/05/16 09:01:54;;;;;;;18.00;5.88;;;16.80;93.10;;;;;;5037084;28;20037;-62
2022/05/16 09:04:25;;;;;;;16.85;6.03;;;16.80;93.30;;;;;;5037399;28;20025;-62
2022/05/16 09:07:04;;;;;;;15.70;5.55;;;16.80;93.10;;;;;;5036944;28;20093;-62
2022/05/16 09:10:00;;;;;;;18.60;6.13;;;16.80;92.90;;;;;;5037470;28;20361;-62
2022/05/16 09:12:36;;;;;;;21.38;6.75;;;16.80;93.20;;;;;;5037253;28;20021;-63
2022/05/16 09:15:38;;;;;;;21.58;6.50;;;16.80;93.50;;;;;;5037068;28;20029;-62
2022/05/16 09:18:24;;;;;;;22.67;7.22;;;16.70;94.30;;;;;;5036990;28;20036;-62
2022/05/16 09:20:58;;;;;;;17.75;6.35;;;16.70;94.30;;;;;;5037320;28;20109;-65
2022/05/16 09:23:45;;;;;;;23.98;8.13;;;16.60;94.80;;;;;;5036391;28;20025;-63
2022/05/16 09:26:25;;;;;;;17.55;7.10;;;16.50;95.30;;;;;;5036903;28;20053;-63
2022/05/16 09:29:17;;;;;;;20.15;6.53;;;16.40;95.30;;;;;;5036740;28;20052;-62
2022/05/16 09:31:48;;;;;;;19.95;6.15;;;16.30;95.20;;;;;;5036788;28;20029;-63
2022/05/16 09:34:15;;;;;;;13.40;5.97;;;16.30;95.40;;;;;;5036437;28;20033;-62
2022/05/16 09:36:46;;;;;;;19.95;6.45;;;16.30;95.80;;;;;;5037738;28;20044;-63
2022/05/16 09:39:16;;;;;;;15.75;6.43;;;16.40;95.60;;;;;;5040491;28;20030;-62
2022/05/16 09:41:48;;;;;;;20.92;6.57;;;16.30;95.60;;;;;;5040244;28;20030;-62
2022/05/16 09:44:28;;;;;;;19.95;6.57;;;16.30;96.40;;;;;;5040297;28;20457;-62
2022/05/16 09:47:34;;;;;;;24.98;7.60;;;16.30;96.10;;;;;;5040639;28;20025;-63
2022/05/16 09:50:03;;;;;;;16.67;6.43;;;16.40;96.80;;;;;;5037957;28;20029;-62
2022/05/16 09:52:45;;;;;;;17.63;7.30;;;16.50;96.20;;;;;;5037811;28;20726;-62
2022/05/16 09:55:26;;;;;;;15.10;6.70;;;16.50;96.10;;;;;;5038992;28;20076;-61
2022/05/16 09:57:58;;;;;;;19.13;6.75;;;16.50;95.90;;;;;;5039932;28;20064;-62
2022/05/16 10:00:32;;;;;;;20.00;7.63;;;16.50;95.80;;;;;;5039868;28;20025;-62
2022/05/16 10:03:14;;;;;;;19.50;7.65;;;16.60;96.20;;;;;;5039656;28;20018;-61
2022/05/16 10:05:51;;;;;;;20.42;6.93;;;16.70;95.60;;;;;;5039985;28;20033;-62
2022/05/16 10:08:46;;;;;;;22.55;8.00;;;16.80;95.40;;;;;;5039957;28;20028;-62
2022/05/16 10:11:20;;;;;;;16.58;7.38;;;16.70;95.80;;;;;;5040541;28;20040;-62
2022/05/16 10:13:46;;;;;;;22.08;7.75;;;16.50;96.20;;;;;;5040291;28;20104;-62
2022/05/16 10:16:14;;;;;;;19.80;6.68;;;16.50;96.60;;;;;;5040250;28;20452;-61
2022/05/16 10:18:45;;;;;;;16.85;7.00;;;16.40;95.80;;;;;;5040451;28;20018;-62
2022/05/16 10:21:41;;;;;;;18.55;7.07;;;16.30;96.30;;;;;;5040325;28;20050;-62
2022/05/16 10:24:11;;;;;;;19.92;7.93;;;16.30;96.60;;;;;;5039475;28;20131;-61
2022/05/16 10:26:42;;;;;;;24.15;7.90;;;16.40;96.80;;;;;;5040107;28;20136;-62
2022/05/16 10:29:12;;;;;;;16.77;6.45;;;16.40;96.60;;;;;;5040018;28;20029;-62
2022/05/16 10:35:03;;;;;;;18.60;6.93;;;16.80;97.00;;;;;;5040111;28;20074;-62
2022/05/16 10:37:35;;;;;;;26.80;8.02;;;17.00;96.20;;;;;;5039840;28;20030;-61
2022/05/16 10:40:11;;;;;;;22.00;7.82;;;17.20;96.00;;;;;;5039645;28;20021;-62
2022/05/16 10:42:46;;;;;;;16.23;7.70;;;17.30;95.40;;;;;;5039520;28;20032;-61
2022/05/16 10:45:21;;;;;;;20.42;7.10;;;17.50;95.10;;;;;;5039748;28;20026;-62
2022/05/16 10:48:27;;;;;;;17.17;7.00;;;17.60;94.60;;;;;;5038562;28;20025;-62
2022/05/16 10:51:03;;;;;;;26.05;8.25;;;17.60;94.40;;;;;;5039432;28;20080;-62
2022/05/16 10:53:58;;;;;;;18.38;7.38;;;17.50;94.00;;;;;;5039607;28;20029;-62
2022/05/16 10:56:57;;;;;;;25.67;7.70;;;17.50;93.90;;;;;;5038831;28;20041;-62
2022/05/16 10:59:32;;;;;;;18.67;7.20;;;17.50;94.00;;;;;;5039290;28;20079;-61
2022/05/16 11:02:03;;;;;;;17.35;7.20;;;17.50;93.90;;;;;;5039134;28;20030;-62
2022/05/16 11:05:08;;;;;;;22.73;6.70;;;17.50;93.10;;;;;;5039401;28;20025;-61
2022/05/16 11:07:43;;;;;;;20.30;7.57;;;17.40;93.30;;;;;;5039483;28;20486;-61
2022/05/16 11:10:39;;;;;;;20.55;6.95;;;17.40;93.40;;;;;;5039700;28;20432;-62
2022/05/16 11:13:18;;;;;;;21.08;6.88;;;17.40;93.40;;;;;;5038533;28;20041;-61
2022/05/16 11:15:50;;;;;;;16.45;6.65;;;17.50;93.20;;;;;;5039302;28;20026;-62
2022/05/16 11:18:41;;;;;;;19.50;7.65;;;17.50;93.20;;;;;;5039213;28;20393;-61
2022/05/16 11:21:22;;;;;;;19.65;6.78;;;17.50;93.10;;;;;;5039366;28;20032;-61
2022/05/16 11:23:59;;;;;;;21.67;7.22;;;17.50;93.20;;;;;;5039176;28;20022;-61
2022/05/16 11:26:31;;;;;;;17.45;7.13;;;17.50;93.40;;;;;;5039127;28;20420;-62
2022/05/16 11:29:17;;;;;;;19.20;7.05;;;17.50;93.30;;;;;;5038899;28;20033;-61
2022/05/16 11:31:58;;;;;;;18.80;6.53;;;17.60;93.30;;;;;;5038524;28;20034;-61
2022/05/16 11:34:41;;;;;;;18.55;7.10;;;17.70;93.30;;;;;;5038741;28;20057;-62
2022/05/16 11:37:30;;;;;;;20.33;6.38;;;17.80;93.00;;;;;;5038722;28;20036;-62
2022/05/16 11:40:01;;;;;;;23.17;7.18;;;17.90;92.70;;;;;;5038834;28;20022;-62
2022/05/16 11:43:03;;;;;;;18.25;6.10;;;18.00;92.40;;;;;;5039009;28;20018;-62
2022/05/16 11:45:35;;;;;;;22.58;7.63;;;17.90;91.90;;;;;;5038869;28;20388;-62
2022/05/16 11:48:10;;;;;;;20.90;7.60;;;17.80;92.10;;;;;;5038259;28;20064;-62
2022/05/16 11:50:54;;;;;;;19.35;6.53;;;17.70;92.00;;;;;;5038457;28;20033;-62
2022/05/16 11:53:32;;;;;;;17.75;6.03;;;17.70;92.20;;;;;;5038670;28;20034;-62
2022/05/16 12:01:32;;;;;;;18.38;6.97;;;17.70;91.70;;;;;;5038402;28;20067;-63
2022/05/16 12:04:20;;;;;;;17.92;6.70;;;17.70;92.00;;;;;;5038394;28;20017;-63
2022/05/16 12:06:58;;;;;;;17.65;5.95;;;17.70;91.70;;;;;;5038425;28;20060;-61
2022/05/16 12:09:31;;;;;;;18.95;5.80;;;17.60;91.90;;;;;;5038336;28;20393;-62
2022/05/16 12:11:57;;;;;;;16.08;5.80;;;17.70;91.80;;;;;;5038328;28;20535;-62
2022/05/16 12:14:34;;;;;;;15.68;5.28;;;17.70;92.00;;;;;;5038054;28;20025;-63
2022/05/16 12:17:16;;;;;;;16.55;5.93;;;17.70;92.00;;;;;;5038092;28;20083;-62
2022/05/16 12:19:44;;;;;;;15.13;5.45;;;17.70;91.90;;;;;;5037794;28;20088;-62
2022/05/16 12:22:12;;;;;;;15.55;5.68;;;17.80;91.70;;;;;;5037893;28;20470;-62
2022/05/16 12:24:56;;;;;;;19.90;5.57;;;17.90;91.60;;;;;;5037799;28;20026;-63
2022/05/16 12:27:38;;;;;;;11.48;4.78;;;18.00;91.50;;;;;;5037539;28;20029;-63
2022/05/16 12:30:13;;;;;;;15.20;5.20;;;18.20;90.90;;;;;;5037468;28;20083;-63
2022/05/16 12:32:38;;;;;;;21.05;5.68;;;18.20;90.40;;;;;;5037327;28;20032;-63
2022/05/16 12:35:13;;;;;;;16.00;5.20;;;18.40;91.00;;;;;;5037626;28;20026;-63
2022/05/16 12:37:39;;;;;;;18.67;6.15;;;18.50;91.10;;;;;;5037987;28;20017;-63
2022/05/16 12:40:19;;;;;;;17.58;5.53;;;18.70;90.20;;;;;;5037142;28;20032;-63
2022/05/16 12:42:51;;;;;;;16.15;4.75;;;18.80;90.00;;;;;;5037619;28;20021;-63
2022/05/16 12:45:28;;;;;;;17.08;5.20;;;19.10;89.10;;;;;;5037666;28;20028;-63
2022/05/16 12:48:09;;;;;;;13.18;4.72;;;19.30;85.40;;;;;;5037779;28;20022;-63
2022/05/16 12:50:58;;;;;;;16.42;4.78;;;19.40;88.10;;;;;;5037757;28;20025;-63
2022/05/16 12:53:33;;;;;;;14.07;4.70;;;19.70;88.80;;;;;;5037582;28;20025;-63
2022/05/16 12:56:26;;;;;;;15.70;4.32;;;20.30;84.90;;;;;;5037442;28;20407;-63
2022/05/16 12:58:58;;;;;;;15.02;3.92;;;20.60;83.80;;;;;;5037912;28;20032;-63
2022/05/16 13:01:35;;;;;;;13.50;4.18;;;20.60;80.10;;;;;;5037494;28;20017;-63
2022/05/16 13:04:10;;;;;;;11.40;3.97;;;20.60;77.10;;;;;;5037493;28;20507;-65
2022/05/16 13:06:48;;;;;;;13.02;4.57;;;20.30;76.30;;;;;;5037761;28;20017;-66
2022/05/16 13:09:19;;;;;;;15.40;4.95;;;20.30;79.50;;;;;;5037612;28;20061;-65
2022/05/16 13:11:54;;;;;;;14.85;4.78;;;20.20;79.40;;;;;;5038820;28;20033;-63
2022/05/16 13:14:48;;;;;;;15.20;4.40;;;20.00;80.50;;;;;;5041576;28;20037;-64
2022/05/16 13:17:31;;;;;;;11.57;4.00;;;19.90;78.70;;;;;;5041181;28;20031;-64
2022/05/16 13:20:01;;;;;;;15.53;4.83;;;19.90;78.40;;;;;;5041424;28;20029;-63
2022/05/16 13:22:34;;;;;;;13.45;4.53;;;19.70;80.50;;;;;;5041224;28;20344;-65
2022/05/16 13:25:00;;;;;;;12.70;4.65;;;19.50;80.40;;;;;;5041344;28;20079;-65
2022/05/16 13:30:18;;;;;;;17.75;4.82;;;19.40;82.40;;;;;;5041369;28;20032;-63